Time;durP1;ratioP1;P1;durP2;ratioP2;P2;SDS_P1;SDS_P2;PMS_P1;PMS_P2;Temp;Humidity;BMP_temperature;BMP_pressure;BME280_temperature;BME280_humidity;BME280_pressure;Samples;Min_cycle;Max_cycle;Signal;HPM_P1;HPM_P2
2020/12/24 00:00:40;;;;;;;;;133.75;88.25;;;;;4.89;100.00;99676.16;4962094;28;8888;-57
2020/12/24 00:03:07;;;;;;;;;121.25;84.00;;;;;4.82;100.00;99670.22;4959436;28;8880;-56
2020/12/24 00:05:34;;;;;;;;;124.50;92.50;;;;;4.86;100.00;99660.31;4961430;28;8862;-56
2020/12/24 00:08:01;;;;;;;;;105.25;73.00;;;;;4.90;100.00;99650.41;4957391;28;8885;-57
2020/12/24 00:10:28;;;;;;;;;104.25;72.50;;;;;4.96;100.00;99647.53;4959555;28;8900;-55
2020/12/24 00:12:55;;;;;;;;;104.00;72.00;;;;;4.91;100.00;99652.16;4956302;28;8846;-56
2020/12/24 00:15:22;;;;;;;;;103.75;73.00;;;;;4.95;100.00;99656.41;4962035;28;8902;-57
2020/12/24 00:17:49;;;;;;;;;101.50;74.50;;;;;4.86;100.00;99655.00;4960379;28;8874;-54
2020/12/24 00:20:16;;;;;;;;;97.25;69.50;;;;;4.92;100.00;99653.88;4962219;28;8886;-58
2020/12/24 00:22:43;;;;;;;;;96.50;72.50;;;;;4.90;100.00;99653.06;4955170;28;8941;-56
2020/12/24 00:25:10;;;;;;;;;96.25;70.50;;;;;5.01;100.00;99665.03;4959520;28;8886;-56
2020/12/24 00:27:37;;;;;;;;;98.25;69.75;;;;;5.15;100.00;99668.94;4962968;28;8925;-57
2020/12/24 00:30:05;;;;;;;;;96.50;68.25;;;;;5.20;100.00;99670.50;4968836;28;8894;-56
2020/12/24 00:32:33;;;;;;;;;105.50;77.00;;;;;4.95;100.00;99670.63;4950344;28;8879;-57
2020/12/24 00:35:00;;;;;;;;;100.50;73.50;;;;;5.20;100.00;99681.16;4963782;28;8848;-58
2020/12/24 00:37:27;;;;;;;;;98.50;72.50;;;;;5.10;100.00;99678.91;4956298;28;8850;-57
2020/12/24 00:39:53;;;;;;;;;98.25;71.25;;;;;4.86;99.76;99680.72;4962172;28;8859;-55
2020/12/24 00:42:20;;;;;;;;;94.25;64.50;;;;;4.83;100.00;99669.28;4957183;28;8879;-57
2020/12/24 00:44:47;;;;;;;;;97.00;67.00;;;;;4.81;100.00;99668.47;4960049;28;8860;-56
2020/12/24 00:47:14;;;;;;;;;102.25;68.00;;;;;4.69;100.00;99665.44;4963767;28;8856;-57
2020/12/24 00:49:41;;;;;;;;;103.75;70.25;;;;;4.71;100.00;99664.41;4963893;28;8903;-57
2020/12/24 00:52:08;;;;;;;;;95.00;69.00;;;;;4.79;99.95;99666.78;4956706;28;8858;-57
2020/12/24 00:54:35;;;;;;;;;94.75;68.00;;;;;4.73;100.00;99648.41;4965967;28;8937;-56
2020/12/24 00:57:02;;;;;;;;;97.75;70.00;;;;;4.78;100.00;99652.63;4956914;28;8868;-57
2020/12/24 00:59:29;;;;;;;;;98.00;69.25;;;;;4.74;100.00;99644.81;4961214;28;8943;-57
2020/12/24 01:01:56;;;;;;;;;92.00;67.25;;;;;4.87;100.00;99646.09;4956545;28;8881;-59
2020/12/24 01:04:23;;;;;;;;;96.00;67.50;;;;;4.64;100.00;99640.81;4966886;28;8888;-58
2020/12/24 01:06:50;;;;;;;;;102.50;72.25;;;;;4.90;100.00;99645.97;4955773;28;8941;-54
2020/12/24 01:09:16;;;;;;;;;93.50;67.50;;;;;4.94;100.00;99642.25;4962188;28;8906;-54
2020/12/24 01:11:43;;;;;;;;;102.25;70.25;;;;;4.81;100.00;99651.63;4957677;28;8933;-56
2020/12/24 01:14:10;;;;;;;;;103.00;72.75;;;;;4.88;100.00;99653.16;4964015;28;9009;-57
2020/12/24 01:16:37;;;;;;;;;94.75;68.25;;;;;4.78;100.00;99657.94;4956047;28;8877;-56
2020/12/24 01:19:04;;;;;;;;;103.25;72.75;;;;;4.89;100.00;99652.22;4958383;28;8880;-57
2020/12/24 01:21:31;;;;;;;;;102.25;72.75;;;;;4.76;100.00;99648.28;4961372;28;9004;-56
2020/12/24 01:23:58;;;;;;;;;100.50;68.75;;;;;4.77;100.00;99645.59;4957815;28;8854;-57
2020/12/24 01:26:25;;;;;;;;;101.00;72.75;;;;;4.73;99.88;99648.41;4956597;28;8835;-57
2020/12/24 01:28:51;;;;;;;;;101.00;73.25;;;;;4.71;100.00;99647.59;4954166;28;8866;-56
2020/12/24 01:31:18;;;;;;;;;102.00;71.50;;;;;4.87;100.00;99651.44;4952815;28;8988;-55
2020/12/24 01:33:45;;;;;;;;;105.75;74.75;;;;;4.77;100.00;99650.03;4960311;28;8982;-55
2020/12/24 01:36:12;;;;;;;;;96.75;70.25;;;;;4.90;100.00;99656.63;4956948;28;8881;-58
2020/12/24 01:38:40;;;;;;;;;106.75;73.50;;;;;4.76;100.00;99646.50;4957826;28;9646;-59
2020/12/24 01:41:07;;;;;;;;;108.00;75.50;;;;;4.62;100.00;99644.38;4957867;28;8867;-56
2020/12/24 01:43:35;;;;;;;;;101.75;73.00;;;;;4.83;100.00;99650.66;4956263;28;8854;-57
2020/12/24 01:46:02;;;;;;;;;101.00;72.25;;;;;4.76;100.00;99641.16;4953475;28;8846;-59
2020/12/24 01:48:29;;;;;;;;;101.25;72.75;;;;;4.72;100.00;99636.06;4952688;28;8916;-53
2020/12/24 01:50:55;;;;;;;;;89.75;63.50;;;;;4.77;100.00;99634.94;4953378;28;8875;-58
2020/12/24 01:53:24;;;;;;;;;104.00;70.75;;;;;4.75;100.00;99622.63;4957370;28;8854;-57
2020/12/24 01:55:55;;;;;;;;;101.25;69.00;;;;;4.68;100.00;99621.13;4945585;28;8875;-54
2020/12/24 01:58:23;;;;;;;;;92.75;65.50;;;;;4.83;100.00;99626.72;4952699;28;8854;-55
2020/12/24 02:00:50;;;;;;;;;101.75;72.50;;;;;4.96;100.00;99629.75;4953120;28;8842;-57
2020/12/24 02:03:18;;;;;;;;;96.00;68.25;;;;;4.89;100.00;99625.59;4960595;28;8863;-57
2020/12/24 02:05:45;;;;;;;;;105.25;70.50;;;;;4.67;100.00;99616.75;4954550;28;8888;-56
2020/12/24 02:08:16;;;;;;;;;103.50;72.75;;;;;4.78;100.00;99619.84;4961326;28;8851;-56
2020/12/24 02:10:44;;;;;;;;;94.75;68.25;;;;;4.65;100.00;99611.47;4954171;28;8858;-58
2020/12/24 02:13:11;;;;;;;;;96.25;72.25;;;;;4.68;100.00;99615.81;4952905;28;8846;-56
2020/12/24 02:15:38;;;;;;;;;100.50;72.00;;;;;4.71;100.00;99610.38;4940996;28;8873;-57
2020/12/24 02:18:05;;;;;;;;;101.25;71.75;;;;;4.66;100.00;99609.69;4958436;28;8881;-57
2020/12/24 02:20:32;;;;;;;;;102.25;68.50;;;;;4.61;100.00;99605.41;4954111;28;8979;-55
2020/12/24 02:22:59;;;;;;;;;90.25;61.50;;;;;4.77;100.00;99603.03;4958401;28;8870;-57
2020/12/24 02:25:26;;;;;;;;;95.25;66.75;;;;;4.68;100.00;99608.69;4952716;28;8888;-56
2020/12/24 02:27:53;;;;;;;;;97.25;70.25;;;;;4.75;100.00;99609.34;4959396;28;8851;-57
2020/12/24 02:30:20;;;;;;;;;93.25;65.00;;;;;4.65;100.00;99607.94;4948465;28;8883;-56
2020/12/24 02:32:47;;;;;;;;;97.75;65.25;;;;;4.71;100.00;99600.59;4955277;28;8971;-56
2020/12/24 02:35:13;;;;;;;;;86.75;60.75;;;;;4.69;100.00;99593.63;4952404;28;8885;-56
2020/12/24 02:37:40;;;;;;;;;85.25;58.00;;;;;4.71;100.00;99594.41;4952643;28;8861;-56
2020/12/24 02:40:07;;;;;;;;;96.50;64.75;;;;;4.57;100.00;99585.19;4953927;28;8862;-56
2020/12/24 02:42:35;;;;;;;;;92.25;64.25;;;;;4.73;100.00;99574.81;4960313;28;8978;-57
2020/12/24 02:45:02;;;;;;;;;96.00;65.50;;;;;4.69;100.00;99567.91;4952891;28;8886;-56
2020/12/24 02:47:29;;;;;;;;;95.50;67.25;;;;;4.70;100.00;99568.75;4953000;28;8931;-56
2020/12/24 02:49:58;;;;;;;;;86.00;63.25;;;;;4.75;100.00;99566.78;4952454;28;8853;-57
2020/12/24 02:52:26;;;;;;;;;97.50;66.75;;;;;4.62;100.00;99561.94;4952041;28;8947;-56
2020/12/24 02:54:54;;;;;;;;;101.50;66.25;;;;;4.67;100.00;99561.75;4943314;28;8869;-57
2020/12/24 02:57:20;;;;;;;;;88.75;62.00;;;;;4.68;100.00;99557.31;4959270;28;8854;-57
2020/12/24 03:00:12;;;;;;;;;93.50;67.25;;;;;4.71;100.00;99546.53;4955918;28;8858;-56
2020/12/24 03:02:40;;;;;;;;;96.00;70.00;;;;;4.76;100.00;99541.91;4952925;28;8855;-53
2020/12/24 03:05:08;;;;;;;;;99.50;67.25;;;;;4.70;100.00;99540.34;4952093;29;8866;-55
2020/12/24 03:07:35;;;;;;;;;85.50;62.75;;;;;4.82;100.00;99536.38;4959968;28;8860;-57
2020/12/24 03:10:06;;;;;;;;;96.25;65.50;;;;;4.77;100.00;99535.69;4953050;28;8862;-55
2020/12/24 03:12:34;;;;;;;;;93.00;66.00;;;;;4.65;100.00;99539.69;4957250;28;8950;-55
2020/12/24 03:15:01;;;;;;;;;94.75;67.75;;;;;4.66;100.00;99536.13;4956767;28;9598;-57
2020/12/24 03:17:28;;;;;;;;;86.75;65.50;;;;;4.68;100.00;99522.72;4956441;28;8884;-58
2020/12/24 03:20:14;;;;;;;;;97.00;66.75;;;;;4.60;100.00;99523.91;4955603;28;8877;-55
2020/12/24 03:22:41;;;;;;;;;99.75;68.25;;;;;4.60;100.00;99517.72;4955604;28;8937;-56
2020/12/24 03:25:07;;;;;;;;;89.75;64.75;;;;;4.55;100.00;99528.53;4956041;28;8854;-55
2020/12/24 03:27:35;;;;;;;;;94.25;66.00;;;;;4.64;100.00;99521.16;4955909;28;8861;-57
2020/12/24 03:30:02;;;;;;;;;93.25;66.75;;;;;4.70;100.00;99512.91;4955789;28;8857;-57
2020/12/24 03:32:29;;;;;;;;;87.00;67.75;;;;;4.53;100.00;99516.22;4955959;28;8851;-57
2020/12/24 03:34:55;;;;;;;;;91.00;60.00;;;;;4.60;100.00;99510.59;4958047;28;9000;-58
2020/12/24 03:37:22;;;;;;;;;90.00;66.50;;;;;4.52;100.00;99518.03;4956100;28;8865;-55
2020/12/24 03:39:49;;;;;;;;;95.75;67.75;;;;;4.54;100.00;99518.84;4957451;28;8897;-54
2020/12/24 03:42:16;;;;;;;;;93.00;67.00;;;;;4.49;100.00;99514.63;4962290;28;8923;-57
2020/12/24 03:44:43;;;;;;;;;100.25;68.00;;;;;4.54;100.00;99515.31;4951424;28;8830;-55
2020/12/24 03:47:09;;;;;;;;;102.25;66.50;;;;;4.49;100.00;99518.16;4955129;28;8852;-54
2020/12/24 03:49:36;;;;;;;;;110.75;71.25;;;;;4.36;100.00;99507.13;4957959;28;8898;-56
2020/12/24 03:52:03;;;;;;;;;96.75;64.75;;;;;4.52;100.00;99510.03;4964256;28;8881;-56
2020/12/24 03:54:30;;;;;;;;;108.25;71.00;;;;;4.47;100.00;99504.03;4961728;28;8873;-56
2020/12/24 03:56:57;;;;;;;;;92.25;61.25;;;;;4.68;100.00;99496.16;4955216;28;8854;-56
2020/12/24 03:59:25;;;;;;;;;97.50;65.75;;;;;4.53;100.00;99495.84;4954942;28;8963;-56
2020/12/24 04:01:52;;;;;;;;;88.00;61.50;;;;;4.52;100.00;99494.09;4955646;28;8892;-57
2020/12/24 04:04:19;;;;;;;;;96.25;65.00;;;;;4.55;100.00;99493.97;4956228;28;9666;-58
2020/12/24 04:06:46;;;;;;;;;100.00;69.00;;;;;4.42;100.00;99482.09;4961033;28;8909;-56
2020/12/24 04:09:13;;;;;;;;;94.75;64.75;;;;;4.37;100.00;99481.41;4954847;28;8841;-56
2020/12/24 04:11:40;;;;;;;;;100.75;70.50;;;;;4.38;100.00;99484.03;4956005;28;8969;-53
2020/12/24 04:14:07;;;;;;;;;97.75;66.50;;;;;4.46;100.00;99486.38;4957511;28;8948;-56
2020/12/24 04:16:34;;;;;;;;;94.75;66.25;;;;;4.38;100.00;99478.69;4957129;28;8894;-57
2020/12/24 04:19:01;;;;;;;;;89.75;62.25;;;;;4.46;100.00;99478.41;4954817;28;8849;-56
2020/12/24 04:21:28;;;;;;;;;106.25;68.50;;;;;4.40;100.00;99476.00;4954737;28;8871;-57
2020/12/24 04:23:54;;;;;;;;;87.50;58.75;;;;;4.39;100.00;99474.25;4955164;28;8887;-56
2020/12/24 04:26:22;;;;;;;;;94.00;66.00;;;;;4.43;100.00;99470.56;4954146;28;9152;-58
2020/12/24 04:28:50;;;;;;;;;96.50;66.25;;;;;4.30;100.00;99461.34;4954535;28;8862;-55
2020/12/24 04:31:17;;;;;;;;;97.75;64.50;;;;;4.49;100.00;99458.81;4940731;28;9673;-55
2020/12/24 04:33:45;;;;;;;;;91.00;64.50;;;;;4.34;100.00;99452.31;4954879;28;8857;-57
2020/12/24 04:36:14;;;;;;;;;102.75;68.25;;;;;4.18;100.00;99452.91;4954681;28;8975;-55
2020/12/24 04:38:42;;;;;;;;;104.75;72.50;;;;;4.21;100.00;99440.44;4945234;28;8876;-54
2020/12/24 04:41:10;;;;;;;;;99.25;67.50;;;;;4.18;100.00;99436.09;4957684;28;8889;-57
2020/12/24 04:43:39;;;;;;;;;97.75;69.75;;;;;4.25;100.00;99431.44;4954508;28;8861;-57
2020/12/24 04:46:08;;;;;;;;;99.75;68.75;;;;;4.29;100.00;99423.28;4954856;28;8940;-56
2020/12/24 04:48:35;;;;;;;;;90.25;61.50;;;;;4.49;100.00;99414.47;4955073;28;8894;-57
2020/12/24 04:51:20;;;;;;;;;99.00;63.50;;;;;4.15;100.00;99407.00;4954134;28;8992;-55
2020/12/24 04:53:48;;;;;;;;;98.00;64.75;;;;;4.10;100.00;99417.81;4955739;28;8885;-56
2020/12/24 04:56:15;;;;;;;;;98.50;65.75;;;;;4.23;100.00;99419.97;4954270;28;8973;-55
2020/12/24 04:58:43;;;;;;;;;105.00;69.25;;;;;4.24;100.00;99413.72;4924007;28;8875;-56
2020/12/24 05:01:16;;;;;;;;;92.25;68.25;;;;;4.16;100.00;99412.25;4944797;28;9578;-56
2020/12/24 05:03:43;;;;;;;;;86.50;63.75;;;;;4.44;100.00;99407.63;4954367;28;8876;-56
2020/12/24 05:06:18;;;;;;;;;89.00;62.50;;;;;4.13;100.00;99407.09;4954762;28;8870;-54
2020/12/24 05:08:56;;;;;;;;;93.50;65.50;;;;;4.12;100.00;99409.78;4953959;28;8864;-57
2020/12/24 05:11:28;;;;;;;;;82.75;61.25;;;;;4.20;100.00;99414.78;4954521;28;8889;-55
2020/12/24 05:13:57;;;;;;;;;81.00;57.25;;;;;4.52;100.00;99416.13;4954818;28;8895;-56
2020/12/24 05:16:24;;;;;;;;;64.25;46.25;;;;;4.40;100.00;99410.41;4943689;28;8956;-57
2020/12/24 05:18:51;;;;;;;;;86.00;60.75;;;;;4.42;100.00;99418.31;4953501;28;9004;-56
2020/12/24 05:21:36;;;;;;;;;82.00;61.50;;;;;4.52;100.00;99421.47;4958146;28;8864;-57
2020/12/24 05:24:22;;;;;;;;;76.50;58.00;;;;;4.30;100.00;99418.81;4954126;28;8938;-56
2020/12/24 05:26:50;;;;;;;;;89.50;66.75;;;;;4.23;100.00;99419.97;4937862;28;8862;-55
2020/12/24 05:29:17;;;;;;;;;83.50;64.75;;;;;4.27;100.00;99410.97;4947117;28;8877;-54
2020/12/24 05:31:44;;;;;;;;;77.00;57.75;;;;;4.24;100.00;99401.34;4956883;28;8870;-56
2020/12/24 05:34:20;;;;;;;;;75.50;54.75;;;;;4.41;100.00;99390.00;4956549;28;8841;-57
2020/12/24 05:36:47;;;;;;;;;77.50;57.50;;;;;4.52;100.00;99385.09;4953487;28;8862;-57
2020/12/24 05:39:14;;;;;;;;;80.25;58.50;;;;;4.55;100.00;99384.97;4953001;28;8850;-58
2020/12/24 05:41:41;;;;;;;;;76.75;55.75;;;;;4.47;100.00;99379.09;4955027;28;8880;-57
2020/12/24 05:44:11;;;;;;;;;73.25;54.50;;;;;4.40;100.00;99385.63;4953536;28;8981;-57
2020/12/24 05:46:56;;;;;;;;;76.25;57.50;;;;;4.55;100.00;99390.28;4953563;28;8850;-56
2020/12/24 05:49:27;;;;;;;;;77.50;58.25;;;;;4.41;100.00;99390.00;4952971;28;8931;-56
2020/12/24 05:52:02;;;;;;;;;70.00;54.50;;;;;4.29;100.00;99382.53;4947961;28;8878;-56
2020/12/24 05:54:31;;;;;;;;;86.50;62.25;;;;;4.34;100.00;99388.50;4944008;28;8980;-55
2020/12/24 05:56:59;;;;;;;;;93.50;64.75;;;;;4.42;99.98;99383.75;4958986;28;8942;-54
2020/12/24 05:59:29;;;;;;;;;88.25;65.50;;;;;4.38;100.00;99387.47;4953009;28;8854;-54
2020/12/24 06:02:14;;;;;;;;;86.25;58.75;;;;;4.56;99.65;99392.03;4932987;29;8922;-57
2020/12/24 06:04:44;;;;;;;;;101.75;69.75;;;;;4.35;99.68;99384.94;4952111;28;8864;-54
2020/12/24 06:07:15;;;;;;;;;98.75;65.50;;;;;4.20;100.00;99377.59;4953562;28;8952;-56
2020/12/24 06:09:45;;;;;;;;;68.00;39.25;;;;;4.47;100.00;99381.75;4953256;28;8841;-56
2020/12/24 06:12:26;;;;;;;;;96.50;66.50;;;;;4.23;99.24;99375.66;4954469;28;8865;-56
2020/12/24 06:15:03;;;;;;;;;76.75;54.50;;;;;4.38;99.46;99379.50;4953242;28;8876;-56
2020/12/24 06:17:31;;;;;;;;;83.50;59.00;;;;;4.35;99.79;99382.28;4952680;28;8869;-57
2020/12/24 06:19:58;;;;;;;;;81.75;61.50;;;;;4.23;99.24;99380.13;4957267;28;8853;-56
2020/12/24 06:22:27;;;;;;;;;89.75;62.00;;;;;4.35;99.97;99380.50;4960713;28;8965;-57
2020/12/24 06:24:57;;;;;;;;;84.50;60.50;;;;;4.25;99.62;99388.91;4962077;28;8859;-58
2020/12/24 06:27:34;;;;;;;;;83.00;61.00;;;;;4.17;99.85;99373.28;4941638;28;8990;-56
2020/12/24 06:30:11;;;;;;;;;81.50;62.75;;;;;4.06;99.20;99375.50;4954711;28;8871;-55
2020/12/24 06:32:46;;;;;;;;;85.75;64.75;;;;;4.35;99.99;99369.00;4943933;28;8910;-54
2020/12/24 06:35:32;;;;;;;;;81.50;60.75;;;;;4.43;99.52;99372.19;4962709;28;8858;-54
2020/12/24 06:37:59;;;;;;;;;81.75;61.00;;;;;4.48;99.13;99383.50;4963219;28;9284;-58
2020/12/24 06:40:40;;;;;;;;;79.50;61.00;;;;;4.46;99.62;99385.38;4951320;28;8864;-57
2020/12/24 06:43:09;;;;;;;;;85.00;58.75;;;;;4.48;98.87;99380.84;4958249;28;8879;-56
2020/12/24 06:45:38;;;;;;;;;92.50;64.00;;;;;4.32;98.59;99383.28;4960845;28;8867;-55
2020/12/24 06:48:19;;;;;;;;;81.00;58.75;;;;;4.35;99.20;99380.50;4959577;28;8862;-54
2020/12/24 06:50:48;;;;;;;;;88.00;62.25;;;;;4.57;99.04;99385.78;4958407;28;8870;-51
2020/12/24 06:53:28;;;;;;;;;88.00;63.75;;;;;4.53;99.42;99384.19;4960774;28;8871;-57
2020/12/24 06:56:16;;;;;;;;;84.00;59.25;;;;;4.43;98.92;99385.50;4961673;28;8850;-57
2020/12/24 06:58:50;;;;;;;;;87.50;58.50;;;;;4.55;99.53;99389.41;4961588;28;8851;-57
2020/12/24 07:01:27;;;;;;;;;90.25;63.75;;;;;4.47;99.36;99383.56;4958104;28;8888;-55
2020/12/24 07:03:57;;;;;;;;;87.50;64.00;;;;;4.52;99.48;99382.44;4946278;28;9584;-56
2020/12/24 07:06:42;;;;;;;;;89.00;58.75;;;;;4.37;99.05;99383.97;4955718;28;8957;-54
2020/12/24 07:09:12;;;;;;;;;89.25;61.00;;;;;4.38;99.68;99377.69;4957539;28;8865;-57
2020/12/24 07:11:50;;;;;;;;;94.75;64.50;;;;;4.66;99.22;99381.88;4953652;28;9575;-55
2020/12/24 07:14:40;;;;;;;;;89.00;60.75;;;;;4.46;99.05;99372.06;4957179;28;8866;-56
2020/12/24 07:17:19;;;;;;;;;80.50;59.00;;;;;4.67;99.54;99367.66;4957992;28;8878;-54
2020/12/24 07:19:51;;;;;;;;;80.00;60.25;;;;;4.66;99.38;99365.03;4953375;28;8875;-57
2020/12/24 07:22:19;;;;;;;;;89.75;66.25;;;;;4.50;99.69;99365.72;4952014;28;8861;-56
2020/12/24 07:25:00;;;;;;;;;85.75;62.00;;;;;4.58;98.87;99371.56;4959088;28;8899;-56
2020/12/24 07:27:28;;;;;;;;;87.00;63.25;;;;;4.68;99.38;99363.19;4953343;28;8974;-57
2020/12/24 07:29:55;;;;;;;;;99.25;64.00;;;;;4.62;100.00;99370.50;4952058;28;8877;-58
2020/12/24 07:32:22;;;;;;;;;72.50;46.25;;;;;4.65;99.67;99373.97;4960571;28;8898;-57
2020/12/24 07:34:48;;;;;;;;;84.50;61.25;;;;;4.74;100.00;99385.06;4942566;29;8857;-55
2020/12/24 07:37:15;;;;;;;;;82.50;62.00;;;;;4.98;98.68;99382.28;4954044;28;8873;-55
2020/12/24 07:39:52;;;;;;;;;87.50;62.00;;;;;5.01;99.29;99369.72;4951996;28;8964;-56
2020/12/24 07:42:26;;;;;;;;;86.00;64.00;;;;;4.82;98.31;99367.00;4959486;28;8878;-55
2020/12/24 07:44:53;;;;;;;;;80.50;57.75;;;;;4.95;97.96;99362.00;4952094;28;8836;-55
2020/12/24 07:47:20;;;;;;;;;83.25;58.75;;;;;4.84;97.71;99358.94;4952322;28;8932;-56
2020/12/24 07:49:52;;;;;;;;;88.50;62.50;;;;;4.94;98.79;99357.59;4952327;28;8857;-52
2020/12/24 07:52:19;;;;;;;;;80.75;58.50;;;;;5.17;97.56;99358.38;4943256;28;8980;-55
2020/12/24 07:54:47;;;;;;;;;81.25;57.00;;;;;5.14;97.72;99356.72;4940034;29;8904;-53
2020/12/24 07:57:21;;;;;;;;;93.00;68.75;;;;;5.00;97.56;99348.47;4951082;29;8996;-55
2020/12/24 07:59:48;;;;;;;;;95.75;73.25;;;;;4.85;97.11;99344.72;4950439;28;8862;-55
2020/12/24 08:02:15;;;;;;;;;97.75;66.75;;;;;4.93;97.62;99341.72;4955211;28;8856;-54
2020/12/24 08:04:42;;;;;;;;;93.75;66.50;;;;;5.10;98.25;99338.31;4955061;28;8871;-55
2020/12/24 08:07:10;;;;;;;;;94.75;68.25;;;;;5.04;97.40;99332.31;4954246;28;8863;-54
2020/12/24 08:09:37;;;;;;;;;258.75;191.75;;;;;4.89;97.24;99330.34;4959973;28;8880;-55
2020/12/24 08:12:04;;;;;;;;;104.50;71.50;;;;;5.04;97.65;99319.00;4954577;28;8852;-55
2020/12/24 08:14:31;;;;;;;;;44.00;27.25;;;;;5.15;97.82;99320.34;4954620;28;8927;-54
2020/12/24 08:18:10;;;;;;;;;88.25;64.50;;;;;5.38;97.45;99330.78;4953802;28;8958;-54
2020/12/24 08:21:09;;;;;;;;;89.75;67.50;;;;;5.27;97.31;99314.47;4912367;29;8892;-54
2020/12/24 08:23:41;;;;;;;;;83.25;60.25;;;;;5.35;96.86;99317.63;4913869;29;8862;-54
2020/12/24 08:26:13;;;;;;;;;87.25;64.00;;;;;5.45;95.85;99315.38;4960667;28;8878;-55
2020/12/24 08:28:48;;;;;;;;;92.00;66.75;;;;;5.54;96.69;99312.31;4953447;28;8858;-53
2020/12/24 08:31:16;;;;;;;;;90.50;68.50;;;;;6.09;96.19;99308.81;4954870;28;9589;-55
2020/12/24 08:33:52;;;;;;;;;96.50;70.50;;;;;5.90;97.32;99309.69;4961474;28;9016;-55
2020/12/24 08:36:27;;;;;;;;;97.00;71.00;;;;;5.54;96.59;99308.78;4954641;28;8939;-56
2020/12/24 08:39:09;;;;;;;;;77.75;57.75;;;;;5.64;95.59;99310.09;4958453;28;8932;-53
2020/12/24 08:42:00;;;;;;;;;102.75;77.75;;;;;5.56;96.63;99312.25;4957777;28;8894;-56
2020/12/24 08:44:28;;;;;;;;;80.00;59.25;;;;;5.67;95.90;99302.78;4954269;28;8994;-55
2020/12/24 08:47:04;;;;;;;;;77.50;50.75;;;;;5.66;96.24;99300.19;4954095;28;8905;-54
2020/12/24 08:49:32;;;;;;;;;75.25;55.00;;;;;5.66;96.22;99294.88;4952623;28;8930;-56
2020/12/24 08:52:17;;;;;;;;;84.75;60.00;;;;;5.79;95.69;99298.66;4951430;28;9623;-55
2020/12/24 08:55:07;;;;;;;;;73.50;54.50;;;;;5.86;96.13;99305.44;4953378;28;8871;-53
2020/12/24 08:57:38;;;;;;;;;81.75;58.25;;;;;5.88;95.09;99292.91;4955993;28;8958;-56
2020/12/24 09:00:15;;;;;;;;;73.75;55.00;;;;;5.61;95.46;99294.22;4952979;28;8857;-56
2020/12/24 09:02:42;;;;;;;;;89.50;68.50;;;;;5.78;96.29;99293.44;4946397;28;9694;-55
2020/12/24 09:05:09;;;;;;;;;95.50;68.25;;;;;5.73;96.09;99288.31;4953814;28;8837;-56
2020/12/24 09:07:42;;;;;;;;;90.25;65.75;;;;;5.81;97.43;99282.63;4953150;28;10110;-56
2020/12/24 09:10:11;;;;;;;;;78.50;58.75;;;;;5.90;97.08;99288.38;4954736;28;8854;-55
2020/12/24 09:12:41;;;;;;;;;82.75;60.25;;;;;5.91;95.92;99274.09;4959165;28;8902;-55
2020/12/24 09:15:15;;;;;;;;;78.25;59.75;;;;;5.81;96.11;99267.50;4954445;28;8871;-52
2020/12/24 09:17:57;;;;;;;;;101.25;72.75;;;;;5.80;96.07;99273.78;4953334;28;8896;-56
2020/12/24 09:20:29;;;;;;;;;97.75;70.00;;;;;5.94;95.46;99266.00;4952156;28;8844;-56
2020/12/24 09:23:01;;;;;;;;;103.25;72.75;;;;;5.97;96.36;99264.97;4962751;28;8880;-54
2020/12/24 09:25:38;;;;;;;;;68.25;53.75;;;;;6.14;95.95;99258.81;4955891;28;8850;-54
2020/12/24 09:28:18;;;;;;;;;97.75;69.00;;;;;6.21;96.75;99260.22;4964184;28;8882;-55
2020/12/24 09:30:46;;;;;;;;;98.75;72.00;;;;;6.31;95.17;99261.47;4960448;28;8941;-56
2020/12/24 09:33:13;;;;;;;;;91.00;68.00;;;;;6.23;95.11;99255.66;4958500;28;9597;-56
2020/12/24 09:35:40;;;;;;;;;97.50;71.00;;;;;6.31;95.42;99256.16;4954077;28;8860;-56
2020/12/24 09:38:13;;;;;;;;;99.25;72.25;;;;;6.38;95.15;99254.91;4960961;28;8870;-54
2020/12/24 09:40:40;;;;;;;;;123.00;100.50;;;;;6.43;94.98;99260.00;4954243;28;9015;-55
2020/12/24 09:43:09;;;;;;;;;107.00;79.25;;;;;6.35;95.15;99256.88;4958352;28;8870;-56
2020/12/24 09:45:37;;;;;;;;;99.00;72.50;;;;;6.35;95.58;99254.19;4964002;28;8870;-55
2020/12/24 09:48:04;;;;;;;;;94.00;64.50;;;;;6.40;95.61;99245.94;4959770;28;8868;-56
2020/12/24 09:50:34;;;;;;;;;80.00;63.50;;;;;6.22;94.47;99240.63;4960643;28;8881;-55
2020/12/24 09:53:03;;;;;;;;;82.00;59.25;;;;;6.29;95.13;99231.38;4949549;28;8972;-53
2020/12/24 09:55:30;;;;;;;;;76.00;56.50;;;;;6.21;95.18;99220.22;4949921;28;8965;-56
2020/12/24 09:57:57;;;;;;;;;70.00;50.25;;;;;6.43;95.42;99222.66;4945779;28;8895;-54
2020/12/24 10:00:24;;;;;;;;;72.25;55.75;;;;;6.44;95.64;99210.19;4956940;28;8860;-55
2020/12/24 10:02:51;;;;;;;;;69.00;55.00;;;;;6.52;95.21;99203.50;4959773;28;8848;-56
2020/12/24 10:05:18;;;;;;;;;85.50;64.25;;;;;6.71;93.79;99192.72;4956616;28;8988;-55
2020/12/24 10:07:51;;;;;;;;;76.50;59.50;;;;;6.40;94.20;99195.28;4952615;28;8896;-52
2020/12/24 10:10:17;;;;;;;;;79.75;60.75;;;;;6.44;95.25;99191.53;4959298;28;8874;-55
2020/12/24 10:12:44;;;;;;;;;83.75;63.00;;;;;6.49;95.95;99184.16;4960793;28;8866;-55
2020/12/24 10:15:11;;;;;;;;;74.50;60.00;;;;;6.49;95.52;99178.81;4963114;28;8950;-53
2020/12/24 10:17:38;;;;;;;;;64.25;50.50;;;;;6.77;94.69;99181.72;4963056;28;8879;-56
2020/12/24 10:20:05;;;;;;;;;81.25;59.75;;;;;6.62;95.01;99179.88;4954989;28;8840;-55
2020/12/24 10:22:32;;;;;;;;;85.75;62.00;;;;;6.80;94.37;99173.56;4952101;28;8857;-55
2020/12/24 10:24:59;;;;;;;;;78.50;59.50;;;;;6.88;93.35;99169.63;4951189;28;8886;-53
2020/12/24 10:27:26;;;;;;;;;70.50;53.25;;;;;6.95;92.91;99162.97;4951707;28;9594;-56
2020/12/24 10:29:53;;;;;;;;;81.25;61.50;;;;;6.89;93.69;99157.97;4951384;28;9691;-54
2020/12/24 10:32:20;;;;;;;;;89.25;64.50;;;;;7.10;92.95;99169.28;4950918;28;8888;-53
2020/12/24 10:34:48;;;;;;;;;93.25;68.50;;;;;6.92;93.78;99153.31;4951231;28;8870;-55
2020/12/24 10:37:15;;;;;;;;;92.75;70.00;;;;;6.97;94.02;99147.75;4951321;28;8893;-54
2020/12/24 10:39:42;;;;;;;;;88.25;63.25;;;;;6.85;94.08;99143.09;4949802;28;8865;-55
2020/12/24 10:42:11;;;;;;;;;81.50;62.25;;;;;6.91;94.00;99148.09;4951599;28;8877;-54
2020/12/24 10:44:38;;;;;;;;;79.25;59.00;;;;;6.80;93.94;99154.88;4951785;28;9702;-57
2020/12/24 10:47:05;;;;;;;;;84.25;62.00;;;;;6.85;94.39;99137.78;4950786;28;9969;-54
2020/12/24 10:49:32;;;;;;;;;95.25;69.25;;;;;7.03;94.01;99142.09;4951477;28;8970;-54
2020/12/24 10:51:59;;;;;;;;;83.75;60.00;;;;;6.95;94.42;99141.63;4951483;28;8976;-56
2020/12/24 10:54:26;;;;;;;;;79.25;59.75;;;;;6.93;94.47;99130.19;4951674;28;8890;-55
2020/12/24 10:56:53;;;;;;;;;85.00;58.75;;;;;7.03;94.50;99136.75;4950721;28;8972;-56
2020/12/24 10:59:20;;;;;;;;;76.25;58.50;;;;;7.03;94.77;99126.06;4951140;29;8853;-53
2020/12/24 11:01:48;;;;;;;;;68.67;53.00;;;;;6.92;94.42;99129.31;4951607;28;9547;-56
2020/12/24 11:04:16;;;;;;;;;75.33;55.33;;;;;7.10;94.50;99135.44;4951203;29;8980;-56
2020/12/24 11:06:45;;;;;;;;;61.67;43.00;;;;;7.09;94.79;99128.38;4949627;28;8847;-55
2020/12/24 11:09:14;;;;;;;;;96.25;70.25;;;;;7.09;94.75;99139.06;4949582;29;8901;-56
2020/12/24 11:11:42;;;;;;;;;88.00;67.25;;;;;7.03;95.31;99126.06;4944930;28;8866;-53
2020/12/24 11:14:10;;;;;;;;;87.75;64.25;;;;;6.96;95.45;99114.84;4949433;29;8908;-54
2020/12/24 11:16:37;;;;;;;;;97.25;72.25;;;;;7.19;94.69;99110.03;4935077;29;9568;-55
2020/12/24 11:19:05;;;;;;;;;87.75;67.25;;;;;7.12;94.54;99108.66;4948793;28;8859;-54
2020/12/24 11:21:34;;;;;;;;;94.75;70.00;;;;;7.35;93.66;99099.34;4950560;28;8888;-55
2020/12/24 11:24:06;;;;;;;;;89.50;65.50;;;;;7.44;93.11;99090.78;4948478;28;8942;-56
2020/12/24 11:26:38;;;;;;;;;89.75;66.00;;;;;7.46;93.06;99105.78;4949797;29;8879;-56
2020/12/24 11:29:07;;;;;;;;;95.25;74.75;;;;;7.65;93.27;99094.84;4949392;29;8858;-56
2020/12/24 11:31:37;;;;;;;;;99.75;74.50;;;;;7.77;92.91;99087.94;4950290;28;8959;-55
2020/12/24 11:34:08;;;;;;;;;77.75;63.00;;;;;7.80;92.74;99087.75;4949949;28;9673;-57
2020/12/24 11:36:37;;;;;;;;;86.50;66.00;;;;;7.89;92.54;99084.50;4953677;28;8954;-56
2020/12/24 11:39:05;;;;;;;;;87.75;65.75;;;;;8.16;91.84;99077.59;4936687;28;8873;-57